createdAt,value
2019-04-26T00:04:53.192Z,18.00
2019-04-26T00:09:59.188Z,18.00
2019-04-26T00:15:33.570Z,18.00
2019-04-26T00:20:37.529Z,18.10
2019-04-26T00:25:41.501Z,18.20
2019-04-26T00:30:45.182Z,18.20
2019-04-26T00:35:48.866Z,18.10
2019-04-26T00:40:54.117Z,18.10
2019-04-26T00:45:59.276Z,18.20
2019-04-26T00:51:05.526Z,18.20
2019-04-26T00:56:09.962Z,18.20
2019-04-26T01:01:15.164Z,18.20
2019-04-26T01:06:20.940Z,18.30
2019-04-26T01:11:25.953Z,18.30
2019-04-26T01:16:29.787Z,18.50
2019-04-26T01:21:40.538Z,18.60
2019-04-26T01:26:46.447Z,18.60
2019-04-26T01:31:58.843Z,18.60
2019-04-26T01:37:04.200Z,18.50
2019-04-26T01:42:17.046Z,18.30
2019-04-26T01:47:21.189Z,18.10
2019-04-26T01:52:25.863Z,17.90
2019-04-26T01:57:31.574Z,18.00
2019-04-26T02:02:48.646Z,18.20
2019-04-26T02:07:52.669Z,18.10
2019-04-26T02:12:57.516Z,18.10
2019-04-26T02:18:02.249Z,18.00
2019-04-26T02:23:12.907Z,18.10
2019-04-26T02:28:16.591Z,18.10
2019-04-26T02:33:20.882Z,18.10
2019-04-26T02:38:25.576Z,18.10
2019-04-26T02:43:31.784Z,18.00
2019-04-26T02:48:49.504Z,17.90
2019-04-26T02:54:08.465Z,17.90
2019-04-26T02:59:35.724Z,17.90
2019-04-26T03:04:41.217Z,17.80
2019-04-26T03:09:46.458Z,17.70
2019-04-26T03:15:13.599Z,17.70
2019-04-26T03:20:11.237Z,17.60
2019-04-26T03:25:36.499Z,17.70
2019-04-26T03:31:03.186Z,17.60
2019-04-26T03:36:45.476Z,17.60
2019-04-26T03:42:20.124Z,17.60
2019-04-26T03:47:27.632Z,17.60
2019-04-26T03:52:51.730Z,17.60
2019-04-26T03:58:00.926Z,17.50
2019-04-26T04:03:53.669Z,17.50
2019-04-26T04:09:03.145Z,17.50
2019-04-26T04:14:15.448Z,17.50
2019-04-26T04:20:03.206Z,17.60
2019-04-26T04:25:10.668Z,17.60
2019-04-26T04:30:26.465Z,17.70
2019-04-26T04:35:33.644Z,17.70
2019-04-26T04:41:16.581Z,17.80
2019-04-26T04:46:55.448Z,17.70
2019-04-26T04:52:16.449Z,17.70
2019-04-26T04:57:37.589Z,17.60
2019-04-26T05:02:57.694Z,17.60
2019-04-26T05:08:27.058Z,17.60
2019-04-26T05:13:58.367Z,17.70
2019-04-26T05:19:32.912Z,17.90
2019-04-26T05:24:55.571Z,18.20
2019-04-26T05:30:56.142Z,18.40
2019-04-26T05:36:24.550Z,18.60
2019-04-26T05:42:00.377Z,18.80
2019-04-26T05:47:29.289Z,19.00
2019-04-26T05:53:02.161Z,19.20
2019-04-26T05:58:32.892Z,19.30
2019-04-26T06:04:19.713Z,19.30
2019-04-26T06:10:13.847Z,19.50
2019-04-26T06:15:38.426Z,19.60
2019-04-26T06:21:02.060Z,19.80
2019-04-26T06:26:32.571Z,19.90
2019-04-26T06:31:46.390Z,20.10
2019-04-26T06:37:07.117Z,20.20
2019-04-26T06:42:23.990Z,20.40
2019-04-26T06:47:38.937Z,20.50
2019-04-26T06:52:51.622Z,20.50
2019-04-26T06:58:21.409Z,20.70
2019-04-26T07:03:44.954Z,20.80
2019-04-26T07:09:07.419Z,20.90
2019-04-26T07:14:37.765Z,21.00
2019-04-26T07:20:19.141Z,21.00
2019-04-26T07:26:25.085Z,20.90
2019-04-26T07:31:44.901Z,21.10
2019-04-26T07:37:48.828Z,21.20
2019-04-26T07:43:18.507Z,21.00
2019-04-26T07:48:59.074Z,21.00
2019-04-26T07:55:03.175Z,21.20
2019-04-26T08:00:17.429Z,21.40
2019-04-26T08:05:38.399Z,21.70
2019-04-26T08:10:48.283Z,21.80
2019-04-26T08:16:24.690Z,22.20
2019-04-26T08:21:37.709Z,23.80
2019-04-26T08:26:45.024Z,25.00
2019-04-26T08:31:53.540Z,25.50
2019-04-26T08:37:08.081Z,24.60
2019-04-26T08:42:22.124Z,24.10
2019-04-26T08:47:28.054Z,26.20
2019-04-26T08:52:35.311Z,28.80
2019-04-26T08:57:42.175Z,30.80
2019-04-26T09:03:11.626Z,29.80
2019-04-26T09:08:16.037Z,27.60
2019-04-26T09:13:22.801Z,26.60
2019-04-26T09:18:27.907Z,27.40
2019-04-26T09:23:51.885Z,29.00
2019-04-26T09:29:30.213Z,30.50
2019-04-26T09:34:31.841Z,30.40
2019-04-26T09:39:35.536Z,30.80
2019-04-26T09:44:58.360Z,30.60
2019-04-26T09:50:36.316Z,31.00
2019-04-26T09:55:40.137Z,32.80
2019-04-26T10:00:48.342Z,34.60
2019-04-26T10:05:52.021Z,38.90
2019-04-26T10:10:55.165Z,39.70
2019-04-26T10:16:12.969Z,37.00
2019-04-26T10:21:16.881Z,34.70
2019-04-26T10:26:23.285Z,31.60
2019-04-26T10:31:26.168Z,35.20
2019-04-26T10:36:31.427Z,39.10
2019-04-26T10:41:35.367Z,41.10
2019-04-26T10:46:39.137Z,40.80
2019-04-26T10:51:44.882Z,39.20
2019-04-26T10:56:56.826Z,39.80
2019-04-26T11:02:00.727Z,39.60
2019-04-26T11:07:04.562Z,36.20
2019-04-26T11:12:09.399Z,34.70
2019-04-26T11:17:16.214Z,34.20
2019-04-26T11:22:28.584Z,35.40
2019-04-26T11:27:24.292Z,34.90
2019-04-26T11:32:28.021Z,35.40
2019-04-26T11:37:31.973Z,35.90
2019-04-26T11:42:35.872Z,38.30
2019-04-26T11:47:54.353Z,39.60
2019-04-26T11:52:45.235Z,38.20
2019-04-26T11:57:49.234Z,37.60
2019-04-26T12:02:52.958Z,37.60
2019-04-26T12:08:01.295Z,38.50
2019-04-26T12:13:06.208Z,38.10
2019-04-26T12:18:11.121Z,38.40
2019-04-26T12:23:20.851Z,38.00
2019-04-26T12:28:21.186Z,37.40
2019-04-26T12:33:24.858Z,36.80
2019-04-26T12:38:29.984Z,37.20
2019-04-26T12:43:33.839Z,36.10
2019-04-26T12:48:37.640Z,35.40
2019-04-26T12:53:41.589Z,35.10
2019-04-26T12:58:45.605Z,33.90
2019-04-26T13:04:06.571Z,33.50
2019-04-26T13:09:15.918Z,34.10
2019-04-26T13:14:38.669Z,33.90
2019-04-26T13:19:41.901Z,33.20
2019-04-26T13:24:45.742Z,33.00
2019-04-26T13:30:01.814Z,31.10
2019-04-26T13:34:54.849Z,30.20
2019-04-26T13:39:58.553Z,30.20
2019-04-26T13:45:10.527Z,30.60
2019-04-26T13:50:17.688Z,31.10
2019-04-26T13:55:21.457Z,32.00
2019-04-26T14:00:28.769Z,32.60
2019-04-26T14:05:32.482Z,32.80
2019-04-26T14:10:36.174Z,32.60
2019-04-26T14:15:43.983Z,31.90
2019-04-26T14:20:45.602Z,31.30
2019-04-26T14:25:56.799Z,32.20
2019-04-26T14:31:00.720Z,33.70
2019-04-26T14:36:17.098Z,31.90
2019-04-26T14:41:13.052Z,31.50
2019-04-26T14:46:16.363Z,31.20
2019-04-26T14:51:20.183Z,31.40
2019-04-26T14:56:24.706Z,31.90
2019-04-26T15:01:47.968Z,32.00
2019-04-26T15:06:57.984Z,31.50
2019-04-26T15:12:01.087Z,31.70
2019-04-26T15:17:05.050Z,32.40
2019-04-26T15:22:10.722Z,31.70
2019-04-26T15:33:02.320Z,29.50
2019-04-26T15:38:06.230Z,28.30
2019-04-26T15:43:24.189Z,26.40
2019-04-26T15:48:40.818Z,26.30
2019-04-26T15:53:48.837Z,25.60
2019-04-26T15:58:52.289Z,25.00
2019-04-26T16:03:56.091Z,24.70
2019-04-26T16:09:00.049Z,24.60
2019-04-26T16:14:03.856Z,24.00
2019-04-26T16:19:07.648Z,23.50
2019-04-26T16:24:12.833Z,23.30
2019-04-26T16:29:24.425Z,23.10
2019-04-26T16:34:30.071Z,22.70
2019-04-26T16:39:38.832Z,22.50
2019-04-26T16:44:45.108Z,22.30
2019-04-26T16:50:21.415Z,22.30
2019-04-26T16:55:38.060Z,21.90
2019-04-26T17:00:51.711Z,21.80
2019-04-26T17:06:06.758Z,21.60
2019-04-26T17:11:07.484Z,21.50
2019-04-26T17:16:12.848Z,21.20
2019-04-26T17:21:22.326Z,21.10
2019-04-26T17:26:36.228Z,20.60
2019-04-26T17:31:38.588Z,20.00
2019-04-26T17:36:42.375Z,19.80
2019-04-26T17:41:50.858Z,19.50
2019-04-26T17:46:56.182Z,19.40
2019-04-26T17:51:58.388Z,18.80
2019-04-26T17:57:04.452Z,18.20
2019-04-26T18:02:20.545Z,17.80
2019-04-26T18:07:39.265Z,17.30
2019-04-26T18:12:20.631Z,17.00
2019-04-26T18:17:46.866Z,16.70
2019-04-26T18:22:54.827Z,16.50
2019-04-26T18:27:58.556Z,15.90
2019-04-26T18:33:02.895Z,15.70
2019-04-26T18:38:08.556Z,15.40
2019-04-26T18:43:16.273Z,15.40
2019-04-26T18:48:17.853Z,15.20
2019-04-26T18:53:39.725Z,15.10
2019-04-26T18:58:44.023Z,14.70
2019-04-26T19:03:49.361Z,14.60
2019-04-26T19:08:53.601Z,14.60
2019-04-26T19:14:19.121Z,14.60
2019-04-26T19:19:32.883Z,14.60
2019-04-26T19:24:38.665Z,14.70
2019-04-26T19:29:43.320Z,14.80
2019-04-26T19:34:52.378Z,14.60
2019-04-26T19:39:56.280Z,14.50
2019-04-26T19:45:11.813Z,14.10
2019-04-26T19:50:15.978Z,14.10
2019-04-26T19:55:33.067Z,13.40
2019-04-26T20:00:38.442Z,12.80
2019-04-26T20:05:44.108Z,12.50
2019-04-26T20:11:08.459Z,12.20
2019-04-26T20:16:15.799Z,12.10
2019-04-26T20:21:19.511Z,12.00
2019-04-26T20:26:23.627Z,12.00
2019-04-26T20:31:37.660Z,12.00
2019-04-26T20:36:55.778Z,11.80
2019-04-26T20:42:04.010Z,11.80
2019-04-26T20:47:14.260Z,12.10
2019-04-26T20:52:16.601Z,12.20
2019-04-26T20:57:26.705Z,12.10
2019-04-26T21:02:29.596Z,12.10
2019-04-26T21:07:33.454Z,12.00
2019-04-26T21:12:37.152Z,12.00
2019-04-26T21:17:41.505Z,12.20
2019-04-26T21:22:45.390Z,12.00
2019-04-26T21:27:57.603Z,11.90
2019-04-26T21:33:14.959Z,12.10
2019-04-26T21:38:39.329Z,12.00
2019-04-26T21:43:43.823Z,12.00
2019-04-26T21:48:47.663Z,11.90
2019-04-26T21:53:52.938Z,11.90
2019-04-26T21:58:56.900Z,11.90
2019-04-26T22:04:00.773Z,11.90
2019-04-26T22:09:14.219Z,11.80
2019-04-26T22:14:23.534Z,11.90
2019-04-26T22:19:58.334Z,11.80
2019-04-26T22:25:03.802Z,11.90
2019-04-26T22:30:13.299Z,11.90
2019-04-26T22:35:21.468Z,11.80
2019-04-26T22:40:23.331Z,11.80
2019-04-26T22:45:35.027Z,11.90
2019-04-26T22:50:38.944Z,11.90
2019-04-26T22:55:43.582Z,12.20
2019-04-26T23:00:47.491Z,11.90
2019-04-26T23:05:51.210Z,11.90
2019-04-26T23:10:56.570Z,12.10
2019-04-26T23:16:23.363Z,11.90
2019-04-26T23:21:30.218Z,12.10
2019-04-26T23:26:37.429Z,11.90
2019-04-26T23:31:41.662Z,12.00
2019-04-26T23:36:49.121Z,12.00
2019-04-26T23:41:50.353Z,11.90
2019-04-26T23:46:58.877Z,11.90
2019-04-26T23:51:59.713Z,11.80
2019-04-26T23:57:03.442Z,11.80
